createdAt,value
2023-05-10T00:00:47.314Z,97001.72
2023-05-10T00:03:15.001Z,97006.09
2023-05-10T00:05:42.570Z,97008.69
2023-05-10T00:08:10.229Z,97009.22
2023-05-10T00:10:38.444Z,97001.09
2023-05-10T00:13:05.964Z,97004.78
2023-05-10T00:15:35.612Z,96992.72
2023-05-10T00:18:03.309Z,96995.00
2023-05-10T00:20:30.850Z,96996.41
2023-05-10T00:22:58.366Z,97007.56
2023-05-10T00:25:25.974Z,96996.69
2023-05-10T00:27:56.068Z,96994.41
2023-05-10T00:30:23.925Z,96996.13
2023-05-10T00:32:52.636Z,96992.56
2023-05-10T00:35:20.292Z,96991.16
2023-05-10T00:37:49.174Z,96988.22
2023-05-10T00:40:17.037Z,96992.78
2023-05-10T00:42:49.199Z,96995.25
2023-05-10T00:45:16.849Z,97002.00
2023-05-10T00:47:44.512Z,97004.06
2023-05-10T00:50:12.145Z,97008.38
2023-05-10T00:52:39.869Z,97013.31
2023-05-10T00:55:08.167Z,97019.38
2023-05-10T00:57:35.841Z,97027.66
2023-05-10T01:00:04.385Z,97018.59
2023-05-10T01:02:31.988Z,97023.88
2023-05-10T01:05:00.005Z,97025.78
2023-05-10T01:07:27.547Z,97025.56
2023-05-10T01:09:55.117Z,97019.00
2023-05-10T01:12:22.805Z,97026.66
2023-05-10T01:14:50.461Z,97025.03
2023-05-10T01:17:18.353Z,97030.63
2023-05-10T01:19:45.890Z,97026.88
2023-05-10T01:22:51.118Z,97023.41
2023-05-10T01:25:52.587Z,97024.22
2023-05-10T01:28:41.757Z,97030.16
2023-05-10T01:31:54.053Z,97040.25
2023-05-10T01:34:31.373Z,97031.13
2023-05-10T01:37:14.299Z,97038.38
2023-05-10T01:39:55.425Z,97037.53
2023-05-10T01:42:27.997Z,97046.03
2023-05-10T01:45:07.776Z,97027.72
2023-05-10T01:47:39.820Z,97021.69
2023-05-10T01:50:16.245Z,97027.72
2023-05-10T01:52:52.243Z,97030.59
2023-05-10T01:55:24.004Z,97032.84
2023-05-10T01:58:06.754Z,97046.31
2023-05-10T02:00:36.446Z,97044.22
2023-05-10T02:03:09.648Z,97046.28
2023-05-10T02:05:42.240Z,97049.59
2023-05-10T02:08:11.021Z,97055.19
2023-05-10T02:10:40.315Z,97047.34
2023-05-10T02:13:11.051Z,97049.78
2023-05-10T02:15:41.056Z,97045.88
2023-05-10T02:18:10.245Z,97048.72
2023-05-10T02:20:39.543Z,97047.66
2023-05-10T02:23:09.965Z,97050.34
2023-05-10T02:25:39.801Z,97054.25
2023-05-10T02:28:08.967Z,97058.38
2023-05-10T02:30:37.808Z,97062.09
2023-05-10T02:33:06.458Z,97061.06
2023-05-10T02:35:34.764Z,97069.50
2023-05-10T02:38:03.429Z,97073.06
2023-05-10T02:40:33.355Z,97081.69
2023-05-10T02:43:03.393Z,97075.50
2023-05-10T02:45:33.333Z,97076.09
2023-05-10T02:48:01.461Z,97081.25
2023-05-10T02:50:33.238Z,97079.81
2023-05-10T02:53:20.094Z,97078.53
2023-05-10T02:55:53.659Z,97075.25
2023-05-10T02:58:21.765Z,97079.56
2023-05-10T03:00:49.420Z,97076.50
2023-05-10T03:03:16.889Z,97077.53
2023-05-10T03:05:44.402Z,97077.13
2023-05-10T03:08:12.462Z,97074.19
2023-05-10T03:10:56.397Z,97081.25
2023-05-10T03:13:37.687Z,97078.78
2023-05-10T03:16:13.136Z,97083.50
2023-05-10T03:19:02.507Z,97083.72
2023-05-10T03:21:32.714Z,97090.31
2023-05-10T03:24:08.134Z,97091.13
2023-05-10T03:26:39.679Z,97091.94
2023-05-10T03:29:16.457Z,97088.63
2023-05-10T03:31:44.272Z,97091.94
2023-05-10T03:34:12.152Z,97091.09
2023-05-10T03:36:39.855Z,97092.34
2023-05-10T03:39:07.935Z,97086.16
2023-05-10T03:41:36.184Z,97090.06
2023-05-10T03:44:04.005Z,97096.25
2023-05-10T03:46:31.515Z,97104.72
2023-05-10T03:48:59.185Z,97090.84
2023-05-10T03:51:29.067Z,97098.75
2023-05-10T03:53:56.557Z,97111.53
2023-05-10T03:56:24.530Z,97107.19
2023-05-10T03:58:52.245Z,97111.13
2023-05-10T04:01:19.874Z,97112.16
2023-05-10T04:03:48.174Z,97103.06
2023-05-10T04:06:15.817Z,97114.19
2023-05-10T04:08:43.355Z,97109.50
2023-05-10T04:11:13.648Z,97109.50
2023-05-10T04:13:41.269Z,97103.91
2023-05-10T04:16:08.805Z,97110.13
2023-05-10T04:18:36.469Z,97111.16
2023-05-10T04:21:04.178Z,97104.16
2023-05-10T04:23:31.702Z,97114.03
2023-05-10T04:26:02.877Z,97108.50
2023-05-10T04:28:30.488Z,97119.91
2023-05-10T04:31:08.135Z,97123.00
2023-05-10T04:33:36.468Z,97123.63
2023-05-10T04:36:04.869Z,97116.25
2023-05-10T04:38:32.410Z,97119.28
2023-05-10T04:41:10.735Z,97121.53
2023-05-10T04:43:39.038Z,97118.84
2023-05-10T04:46:07.142Z,97126.53
2023-05-10T04:48:34.806Z,97128.16
2023-05-10T04:51:02.416Z,97124.84
2023-05-10T04:53:29.893Z,97129.59
2023-05-10T04:55:57.405Z,97134.38
2023-05-10T04:58:24.912Z,97137.03
2023-05-10T05:00:52.511Z,97139.09
2023-05-10T05:03:20.087Z,97137.22
2023-05-10T05:05:47.618Z,97143.59
2023-05-10T05:08:15.283Z,97141.53
2023-05-10T05:10:42.747Z,97141.75
2023-05-10T05:13:10.353Z,97141.31
2023-05-10T05:15:37.879Z,97142.38
2023-05-10T05:18:05.475Z,97151.19
2023-05-10T05:20:35.961Z,97151.44
2023-05-10T05:23:03.533Z,97153.50
2023-05-10T05:25:31.309Z,97157.03
2023-05-10T05:27:58.800Z,97157.22
2023-05-10T05:30:26.353Z,97160.34
2023-05-10T05:32:53.882Z,97159.72
2023-05-10T05:35:21.660Z,97156.19
2023-05-10T05:37:49.205Z,97159.28
2023-05-10T05:40:16.760Z,97162.19
2023-05-10T05:42:44.345Z,97163.84
2023-05-10T05:45:14.068Z,97161.97
2023-05-10T05:47:42.110Z,97160.13
2023-05-10T05:50:10.570Z,97163.59
2023-05-10T05:52:38.053Z,97162.56
2023-05-10T05:55:06.049Z,97159.69
2023-05-10T05:57:33.620Z,97162.41
2023-05-10T06:00:01.277Z,97164.91
2023-05-10T06:02:28.881Z,97170.69
2023-05-10T06:04:56.456Z,97172.50
2023-05-10T06:07:23.968Z,97177.06
2023-05-10T06:09:51.461Z,97174.78
2023-05-10T06:12:18.935Z,97176.66
2023-05-10T06:14:46.440Z,97176.88
2023-05-10T06:17:15.012Z,97189.84
2023-05-10T06:19:42.619Z,97183.81
2023-05-10T06:22:10.318Z,97190.00
2023-05-10T06:24:37.796Z,97188.13
2023-05-10T06:27:05.299Z,97189.16
2023-05-10T06:29:32.821Z,97182.06
2023-05-10T06:32:00.359Z,97187.59
2023-05-10T06:34:27.924Z,97184.84
2023-05-10T06:36:55.597Z,97188.72
2023-05-10T06:39:23.190Z,97199.63
2023-05-10T06:41:50.804Z,97187.84
2023-05-10T06:44:20.225Z,97199.97
2023-05-10T06:46:47.917Z,97194.91
2023-05-10T06:49:15.432Z,97197.16
2023-05-10T06:51:42.980Z,97198.59
2023-05-10T06:54:10.552Z,97196.06
2023-05-10T06:56:38.060Z,97204.94
2023-05-10T06:59:05.572Z,97204.09
2023-05-10T07:01:33.163Z,97203.88
2023-05-10T07:04:00.752Z,97204.66
2023-05-10T07:06:33.527Z,97205.41
2023-05-10T07:09:01.986Z,97206.19
2023-05-10T07:11:29.710Z,97203.41
2023-05-10T07:13:57.218Z,97205.25
2023-05-10T07:16:24.904Z,97202.69
2023-05-10T07:18:53.998Z,97208.06
2023-05-10T07:21:21.984Z,97218.34
2023-05-10T07:23:49.560Z,97222.72
2023-05-10T07:26:17.167Z,97216.44
2023-05-10T07:28:44.661Z,97216.16
2023-05-10T07:31:12.171Z,97222.50
2023-05-10T07:33:39.792Z,97224.44
2023-05-10T07:36:07.674Z,97225.72
2023-05-10T07:38:35.220Z,97226.94
2023-05-10T07:41:02.895Z,97222.44
2023-05-10T07:43:30.409Z,97225.72
2023-05-10T07:45:58.646Z,97226.25
2023-05-10T07:48:26.979Z,97225.91
2023-05-10T07:50:54.483Z,97227.44
2023-05-10T07:53:21.997Z,97228.00
2023-05-10T07:55:55.377Z,97231.91
2023-05-10T07:58:22.887Z,97230.59
2023-05-10T08:00:50.521Z,97233.03
2023-05-10T08:03:18.309Z,97230.59
2023-05-10T08:05:45.910Z,97235.78
2023-05-10T08:08:13.402Z,97231.59
2023-05-10T08:10:40.950Z,97238.31
2023-05-10T08:13:08.407Z,97236.19
2023-05-10T08:15:35.956Z,97233.88
2023-05-10T08:18:03.577Z,97236.19
2023-05-10T08:20:31.139Z,97237.88
2023-05-10T08:22:58.817Z,97246.81
2023-05-10T08:25:26.671Z,97241.75
2023-05-10T08:27:54.204Z,97249.88
2023-05-10T08:30:21.858Z,97244.09
2023-05-10T08:32:49.409Z,97243.81
2023-05-10T08:35:17.424Z,97245.16
2023-05-10T08:37:45.100Z,97246.88
2023-05-10T08:40:13.350Z,97252.38
2023-05-10T08:42:49.888Z,97249.81
2023-05-10T08:45:19.060Z,97246.31
2023-05-10T08:47:47.574Z,97248.28
2023-05-10T08:50:18.040Z,97267.88
2023-05-10T08:52:49.315Z,97252.03
2023-05-10T08:55:17.473Z,97251.81
2023-05-10T08:57:45.605Z,97246.00
2023-05-10T09:00:14.351Z,97259.47
2023-05-10T09:02:43.797Z,97265.47
2023-05-10T09:05:11.828Z,97257.53
2023-05-10T09:07:39.468Z,97267.13
2023-05-10T09:10:08.111Z,97267.75
2023-05-10T09:12:36.764Z,97269.75
2023-05-10T09:15:06.669Z,97266.00
2023-05-10T09:17:35.387Z,97272.22
2023-05-10T09:20:05.170Z,97271.94
2023-05-10T09:22:34.691Z,97276.22
2023-05-10T09:25:14.305Z,97274.22
2023-05-10T09:27:46.442Z,97284.19
2023-05-10T09:30:31.562Z,97279.91
2023-05-10T09:33:00.814Z,97288.41
2023-05-10T09:35:31.789Z,97285.69
2023-05-10T09:38:03.893Z,97285.81
2023-05-10T09:40:32.521Z,97289.13
2023-05-10T09:43:07.269Z,97292.00
2023-05-10T09:45:38.490Z,97293.50
2023-05-10T09:48:07.387Z,97280.78
2023-05-10T09:50:35.368Z,97290.31
2023-05-10T09:53:04.427Z,97288.22
2023-05-10T09:55:47.342Z,97291.81
2023-05-10T09:58:15.585Z,97290.00
2023-05-10T10:00:46.365Z,97296.91
2023-05-10T10:03:17.183Z,97296.19
2023-05-10T10:05:45.959Z,97295.00
2023-05-10T10:08:14.472Z,97294.72
2023-05-10T10:10:43.400Z,97291.91
2023-05-10T10:13:10.965Z,97298.09
2023-05-10T10:15:38.938Z,97294.59
2023-05-10T10:18:07.483Z,97307.16
2023-05-10T10:20:38.071Z,97297.19
2023-05-10T10:23:05.711Z,97305.66
2023-05-10T10:25:34.262Z,97308.06
2023-05-10T10:28:49.568Z,97301.69
2023-05-10T10:31:41.657Z,97297.13
2023-05-10T10:34:29.084Z,97297.13
2023-05-10T10:36:58.344Z,97297.34
2023-05-10T10:39:26.342Z,97312.41
2023-05-10T10:41:58.933Z,97286.88
2023-05-10T10:44:37.843Z,97300.06
2023-05-10T10:47:24.159Z,97301.88
2023-05-10T10:50:06.820Z,97298.31
2023-05-10T10:52:41.813Z,97298.59
2023-05-10T10:55:15.317Z,97309.56
2023-05-10T10:57:56.272Z,97297.72
2023-05-10T11:00:36.870Z,97298.84
2023-05-10T11:03:08.304Z,97299.94
2023-05-10T11:05:58.731Z,97305.69
2023-05-10T11:08:35.733Z,97300.22
2023-05-10T11:11:08.145Z,97304.19
2023-05-10T11:13:41.512Z,97305.22
2023-05-10T11:16:27.926Z,97302.47
2023-05-10T11:19:07.699Z,97304.31
2023-05-10T11:21:45.742Z,97302.47
2023-05-10T11:24:22.007Z,97303.50
2023-05-10T11:26:52.997Z,97308.25
2023-05-10T11:29:21.186Z,97308.91
2023-05-10T11:31:50.348Z,97299.03
2023-05-10T11:34:31.192Z,97315.00
2023-05-10T11:36:59.312Z,97307.72
2023-05-10T11:39:34.502Z,97308.44
2023-05-10T11:42:02.026Z,97302.84
2023-05-10T11:44:33.584Z,97309.28
2023-05-10T11:47:02.547Z,97311.88
2023-05-10T11:49:30.123Z,97317.63
2023-05-10T11:52:08.513Z,97325.38
2023-05-10T11:54:36.177Z,97317.75
2023-05-10T11:57:04.327Z,97316.38
2023-05-10T11:59:32.067Z,97316.34
2023-05-10T12:02:00.111Z,97322.59
2023-05-10T12:04:30.233Z,97322.28
2023-05-10T12:06:57.959Z,97331.28
2023-05-10T12:09:39.728Z,97325.97
2023-05-10T12:12:28.407Z,97314.34
2023-05-10T12:14:55.875Z,97321.69
2023-05-10T12:17:27.994Z,97318.16
2023-05-10T12:19:59.490Z,97320.75
2023-05-10T12:22:27.139Z,97320.84
2023-05-10T12:24:54.634Z,97324.78
2023-05-10T12:27:22.152Z,97330.66
2023-05-10T12:29:49.679Z,97336.22
2023-05-10T12:32:17.226Z,97336.31
2023-05-10T12:34:47.725Z,97331.28
2023-05-10T12:37:15.254Z,97341.31
2023-05-10T12:39:45.579Z,97345.41
2023-05-10T12:42:13.173Z,97354.09
2023-05-10T12:44:41.155Z,97343.19
2023-05-10T12:47:08.734Z,97340.88
2023-05-10T12:49:36.981Z,97337.06
2023-05-10T12:52:04.994Z,97338.09
2023-05-10T12:54:32.561Z,97341.84
2023-05-10T12:57:00.246Z,97339.16
2023-05-10T12:59:27.962Z,97340.72
2023-05-10T13:01:55.502Z,97334.34
2023-05-10T13:04:23.094Z,97336.84
2023-05-10T13:06:50.783Z,97333.84
2023-05-10T13:09:18.624Z,97324.69
2023-05-10T13:11:46.507Z,97326.50
2023-05-10T13:14:14.368Z,97334.13
2023-05-10T13:16:42.116Z,97327.22
2023-05-10T13:19:09.880Z,97328.50
2023-05-10T13:21:37.519Z,97324.19
2023-05-10T13:24:05.073Z,97328.19
2023-05-10T13:26:32.635Z,97326.38
2023-05-10T13:29:00.245Z,97330.28
2023-05-10T13:31:27.758Z,97327.06
2023-05-10T13:33:55.442Z,97334.19
2023-05-10T13:36:23.732Z,97322.38
2023-05-10T13:38:51.363Z,97329.16
2023-05-10T13:41:19.094Z,97328.31
2023-05-10T13:43:46.626Z,97321.03
2023-05-10T13:46:14.196Z,97319.16
2023-05-10T13:48:41.838Z,97311.88
2023-05-10T13:51:09.353Z,97306.81
2023-05-10T13:53:37.474Z,97309.91
2023-05-10T13:56:05.191Z,97310.13
2023-05-10T13:58:32.741Z,97311.75
2023-05-10T14:01:00.305Z,97309.28
2023-05-10T14:03:27.883Z,97308.06
2023-05-10T14:05:55.460Z,97305.91
2023-05-10T14:08:23.576Z,97318.00
2023-05-10T14:10:51.683Z,97316.34
2023-05-10T14:13:19.240Z,97313.47
2023-05-10T14:15:47.011Z,97314.44
2023-05-10T14:18:15.301Z,97308.31
2023-05-10T14:20:42.881Z,97303.75
2023-05-10T14:23:12.125Z,97311.22
2023-05-10T14:25:41.826Z,97307.56
2023-05-10T14:28:09.442Z,97302.97
2023-05-10T14:30:37.471Z,97314.47
2023-05-10T14:33:05.119Z,97303.94
2023-05-10T14:35:32.838Z,97303.69
2023-05-10T14:38:00.404Z,97302.69
2023-05-10T14:40:28.022Z,97299.81
2023-05-10T14:42:55.613Z,97305.63
2023-05-10T14:45:23.906Z,97302.63
2023-05-10T14:47:51.588Z,97305.28
2023-05-10T14:50:35.138Z,97301.63
2023-05-10T14:53:03.887Z,97305.53
2023-05-10T14:55:31.525Z,97308.53
2023-05-10T14:57:59.418Z,97302.81
2023-05-10T15:00:28.600Z,97297.69
2023-05-10T15:02:57.031Z,97291.72
2023-05-10T15:05:25.147Z,97305.28
2023-05-10T15:07:52.857Z,97306.44
2023-05-10T15:10:20.381Z,97302.00
2023-05-10T15:12:47.883Z,97298.84
2023-05-10T15:15:16.091Z,97297.06
2023-05-10T15:17:44.374Z,97295.97
2023-05-10T15:20:12.508Z,97302.03
2023-05-10T15:22:40.006Z,97302.66
2023-05-10T15:25:08.040Z,97298.25
2023-05-10T15:27:36.247Z,97298.50
2023-05-10T15:30:04.332Z,97301.25
2023-05-10T15:32:31.924Z,97305.59
2023-05-10T15:35:00.025Z,97300.06
2023-05-10T15:37:28.207Z,97302.41
2023-05-10T15:40:03.283Z,97302.41
2023-05-10T15:42:32.549Z,97302.72
2023-05-10T15:45:00.293Z,97306.13
2023-05-10T15:47:28.748Z,97307.00
2023-05-10T15:49:56.301Z,97304.09
2023-05-10T15:52:24.211Z,97307.72
2023-05-10T15:54:52.036Z,97307.41
2023-05-10T15:57:19.541Z,97304.69
2023-05-10T15:59:47.245Z,97311.53
2023-05-10T16:02:15.848Z,97323.69
2023-05-10T16:04:44.549Z,97320.50
2023-05-10T16:07:12.210Z,97315.13
2023-05-10T16:09:39.765Z,97317.25
2023-05-10T16:12:08.480Z,97323.94
2023-05-10T16:14:36.005Z,97314.53
2023-05-10T16:17:04.632Z,97317.53
2023-05-10T16:19:33.054Z,97320.25
2023-05-10T16:22:01.172Z,97332.56
2023-05-10T16:24:29.209Z,97324.59
2023-05-10T16:26:57.081Z,97329.28
2023-05-10T16:29:25.066Z,97323.88
2023-05-10T16:31:53.206Z,97330.13
2023-05-10T16:34:24.091Z,97325.75
2023-05-10T16:36:52.377Z,97331.69
2023-05-10T16:39:20.401Z,97330.56
2023-05-10T16:41:48.144Z,97334.41
2023-05-10T16:44:18.147Z,97342.41
2023-05-10T16:46:47.481Z,97338.69
2023-05-10T16:49:15.369Z,97337.09
2023-05-10T16:51:43.796Z,97334.25
2023-05-10T16:54:11.646Z,97344.38
2023-05-10T16:56:39.456Z,97339.41
2023-05-10T16:59:07.168Z,97339.94
2023-05-10T17:01:34.786Z,97340.09
2023-05-10T17:04:02.796Z,97339.59
2023-05-10T17:06:30.420Z,97337.69
2023-05-10T17:08:58.048Z,97336.41
2023-05-10T17:11:25.615Z,97340.97
2023-05-10T17:13:53.134Z,97336.41
2023-05-10T17:16:21.271Z,97339.16
2023-05-10T17:18:49.012Z,97344.94
2023-05-10T17:21:16.752Z,97347.84
2023-05-10T17:23:44.276Z,97353.22
2023-05-10T17:26:11.777Z,97354.69
2023-05-10T17:28:39.283Z,97350.06
2023-05-10T17:31:06.874Z,97350.06
2023-05-10T17:33:34.423Z,97355.22
2023-05-10T17:36:02.004Z,97356.97
2023-05-10T17:38:29.619Z,97356.03
2023-05-10T17:40:57.403Z,97361.59
2023-05-10T17:43:25.998Z,97360.72
2023-05-10T17:45:53.521Z,97354.72
2023-05-10T17:48:21.118Z,97355.78
2023-05-10T17:50:50.837Z,97359.72
2023-05-10T17:53:19.480Z,97363.41
2023-05-10T17:55:47.746Z,97359.47
2023-05-10T17:58:15.528Z,97360.72
2023-05-10T18:00:43.331Z,97369.41
2023-05-10T18:03:11.580Z,97369.03
2023-05-10T18:05:39.466Z,97368.44
2023-05-10T18:08:07.420Z,97365.38
2023-05-10T18:10:36.149Z,97370.19
2023-05-10T18:13:06.290Z,97369.75
2023-05-10T18:15:35.024Z,97364.13
2023-05-10T18:18:04.163Z,97367.44
2023-05-10T18:20:31.995Z,97374.69
2023-05-10T18:23:00.013Z,97371.59
2023-05-10T18:25:28.471Z,97373.69
2023-05-10T18:27:56.206Z,97369.78
2023-05-10T18:30:23.836Z,97373.16
2023-05-10T18:32:51.502Z,97371.56
2023-05-10T18:35:19.484Z,97376.94
2023-05-10T18:37:48.565Z,97372.81
2023-05-10T18:40:17.754Z,97375.53
2023-05-10T18:42:50.153Z,97382.34
2023-05-10T18:45:18.080Z,97379.31
2023-05-10T18:47:45.922Z,97376.22
2023-05-10T18:50:13.691Z,97371.69
2023-05-10T18:52:41.590Z,97377.28
2023-05-10T18:55:09.791Z,97376.88
2023-05-10T18:57:43.725Z,97380.84
2023-05-10T19:00:13.252Z,97380.88
2023-05-10T19:02:41.388Z,97381.75
2023-05-10T19:05:09.501Z,97378.66
2023-05-10T19:07:37.035Z,97383.22
2023-05-10T19:10:05.032Z,97394.81
2023-05-10T19:12:32.869Z,97388.00
2023-05-10T19:15:00.378Z,97399.78
2023-05-10T19:17:28.694Z,97395.66
2023-05-10T19:19:57.646Z,97399.38
2023-05-10T19:22:44.973Z,97404.41
2023-05-10T19:25:13.170Z,97403.75
2023-05-10T19:27:40.650Z,97404.38
2023-05-10T19:30:08.945Z,97408.34
2023-05-10T19:32:36.643Z,97404.59
2023-05-10T19:35:04.678Z,97405.63
2023-05-10T19:37:32.221Z,97406.88
2023-05-10T19:40:00.213Z,97401.94
2023-05-10T19:42:28.021Z,97403.81
2023-05-10T19:44:55.796Z,97409.41
2023-05-10T19:47:23.556Z,97414.78
2023-05-10T19:49:51.253Z,97415.63
2023-05-10T19:52:19.092Z,97409.22
2023-05-10T19:54:46.763Z,97412.31
2023-05-10T19:57:14.388Z,97406.13
2023-05-10T19:59:42.508Z,97403.84
2023-05-10T20:02:10.064Z,97411.09
2023-05-10T20:04:37.605Z,97411.13
2023-05-10T20:07:05.368Z,97409.25
2023-05-10T20:09:32.918Z,97406.38
2023-05-10T20:12:00.464Z,97416.31
2023-05-10T20:14:28.055Z,97415.72
2023-05-10T20:16:55.684Z,97413.66
2023-05-10T20:19:23.380Z,97414.88
2023-05-10T20:21:50.888Z,97416.13
2023-05-10T20:24:19.280Z,97416.13
2023-05-10T20:26:46.877Z,97420.09
2023-05-10T20:29:14.389Z,97412.00
2023-05-10T20:31:42.031Z,97415.53
2023-05-10T20:34:09.572Z,97411.16
2023-05-10T20:36:37.124Z,97416.34
2023-05-10T20:39:04.794Z,97413.06
2023-05-10T20:41:32.320Z,97411.59
2023-05-10T20:44:00.399Z,97407.25
2023-05-10T20:46:28.082Z,97403.94
2023-05-10T20:48:55.625Z,97404.56
2023-05-10T20:51:24.150Z,97400.44
2023-05-10T20:53:51.683Z,97408.91
2023-05-10T20:56:19.638Z,97399.19
2023-05-10T20:58:47.157Z,97396.72
2023-05-10T21:01:14.744Z,97399.38
2023-05-10T21:03:42.290Z,97400.22
2023-05-10T21:06:09.823Z,97391.72
2023-05-10T21:08:37.287Z,97393.38
2023-05-10T21:11:05.634Z,97406.81
2023-05-10T21:13:33.555Z,97401.63
2023-05-10T21:16:01.178Z,97394.59
2023-05-10T21:18:28.707Z,97394.81
2023-05-10T21:20:56.379Z,97405.16
2023-05-10T21:23:23.897Z,97396.03
2023-05-10T21:25:51.416Z,97399.78
2023-05-10T21:28:18.974Z,97405.34
2023-05-10T21:30:46.482Z,97402.84
2023-05-10T21:33:14.207Z,97401.41
2023-05-10T21:35:42.988Z,97399.56
2023-05-10T21:38:10.667Z,97406.16
2023-05-10T21:40:39.801Z,97404.94
2023-05-10T21:43:08.139Z,97407.00
2023-05-10T21:45:36.454Z,97412.38
2023-05-10T21:48:04.228Z,97409.25
2023-05-10T21:50:31.849Z,97403.06
2023-05-10T21:52:59.743Z,97402.63
2023-05-10T21:55:27.492Z,97404.28
2023-05-10T21:57:54.993Z,97406.97
2023-05-10T22:00:22.560Z,97401.59
2023-05-10T22:02:50.150Z,97397.25
2023-05-10T22:05:17.742Z,97397.25
2023-05-10T22:07:45.935Z,97400.34
2023-05-10T22:10:13.512Z,97405.72
2023-05-10T22:12:41.024Z,97407.34
2023-05-10T22:15:10.799Z,97401.97
2023-05-10T22:17:39.997Z,97407.97
2023-05-10T22:20:09.000Z,97405.50
2023-05-10T22:22:39.439Z,97401.13
2023-05-10T22:25:07.792Z,97400.13
2023-05-10T22:27:35.812Z,97406.72
2023-05-10T22:30:04.765Z,97400.31
2023-05-10T22:32:32.946Z,97397.41
2023-05-10T22:35:00.602Z,97398.63
2023-05-10T22:37:28.075Z,97400.50
2023-05-10T22:39:55.576Z,97408.75
2023-05-10T22:42:23.078Z,97408.94
2023-05-10T22:44:50.684Z,97415.31
2023-05-10T22:47:18.194Z,97402.94
2023-05-10T22:49:45.748Z,97401.50
2023-05-10T22:52:13.264Z,97404.19
2023-05-10T22:54:40.871Z,97406.84
2023-05-10T22:57:08.350Z,97404.34
2023-05-10T22:59:35.962Z,97404.16
2023-05-10T23:02:03.585Z,97407.25
2023-05-10T23:04:31.160Z,97397.91
2023-05-10T23:06:58.814Z,97397.53
2023-05-10T23:09:26.304Z,97407.22
2023-05-10T23:11:53.837Z,97413.00
2023-05-10T23:14:21.320Z,97411.13
2023-05-10T23:16:48.802Z,97409.66
2023-05-10T23:19:16.342Z,97409.00
2023-05-10T23:21:43.851Z,97419.56
2023-05-10T23:24:11.569Z,97413.72
2023-05-10T23:26:39.137Z,97414.16
2023-05-10T23:29:06.624Z,97421.16
2023-05-10T23:31:34.190Z,97421.34
2023-05-10T23:34:01.672Z,97417.22
2023-05-10T23:36:30.718Z,97415.97
2023-05-10T23:38:58.202Z,97415.97
2023-05-10T23:41:26.350Z,97410.16
2023-05-10T23:43:54.242Z,97418.66
2023-05-10T23:46:21.759Z,97412.84
2023-05-10T23:48:49.247Z,97415.34
2023-05-10T23:51:16.730Z,97417.00
2023-05-10T23:53:44.269Z,97409.97
2023-05-10T23:56:11.806Z,97413.09
2023-05-10T23:58:39.287Z,97419.91
